sensor_id;sensor_type;location;lat;lon;timestamp;temperature;humidity
79467;SHT30;68933;49.726;9.226;2024-02-21T00:00:36;9;70
79467;SHT30;68933;49.726;9.226;2024-02-21T00:02:50;9.1;70
79467;SHT30;68933;49.726;9.226;2024-02-21T00:05:02;9.1;70
79467;SHT30;68933;49.726;9.226;2024-02-21T00:07:15;9.1;70
79467;SHT30;68933;49.726;9.226;2024-02-21T00:09:28;9.1;70
79467;SHT30;68933;49.726;9.226;2024-02-21T00:11:41;9.1;70
79467;SHT30;68933;49.726;9.226;2024-02-21T00:13:54;9.2;70
79467;SHT30;68933;49.726;9.226;2024-02-21T00:16:07;9.2;70
79467;SHT30;68933;49.726;9.226;2024-02-21T00:18:20;9.2;70
79467;SHT30;68933;49.726;9.226;2024-02-21T00:20:33;9.2;70
79467;SHT30;68933;49.726;9.226;2024-02-21T00:22:46;9.3;68
79467;SHT30;68933;49.726;9.226;2024-02-21T00:24:59;9.3;68
79467;SHT30;68933;49.726;9.226;2024-02-21T00:33:16;9.3;68
79467;SHT30;68933;49.726;9.226;2024-02-21T00:35:28;9.3;68
79467;SHT30;68933;49.726;9.226;2024-02-21T00:37:41;9.4;68
79467;SHT30;68933;49.726;9.226;2024-02-21T00:39:54;9.4;68
79467;SHT30;68933;49.726;9.226;2024-02-21T00:42:07;9.4;68
79467;SHT30;68933;49.726;9.226;2024-02-21T00:44:20;9.4;68
79467;SHT30;68933;49.726;9.226;2024-02-21T00:46:33;9.4;68
79467;SHT30;68933;49.726;9.226;2024-02-21T00:48:46;9.4;68
79467;SHT30;68933;49.726;9.226;2024-02-21T00:50:59;9.4;68
79467;SHT30;68933;49.726;9.226;2024-02-21T00:53:12;9.5;68
79467;SHT30;68933;49.726;9.226;2024-02-21T00:55:25;9.5;68
79467;SHT30;68933;49.726;9.226;2024-02-21T00:57:38;9.5;68
79467;SHT30;68933;49.726;9.226;2024-02-21T00:59:51;9.5;68
79467;SHT30;68933;49.726;9.226;2024-02-21T01:02:04;9.5;68
79467;SHT30;68933;49.726;9.226;2024-02-21T01:04:17;9.5;68
79467;SHT30;68933;49.726;9.226;2024-02-21T01:06:30;9.5;68
79467;SHT30;68933;49.726;9.226;2024-02-21T01:08:43;9.6;68
79467;SHT30;68933;49.726;9.226;2024-02-21T01:10:56;9.6;68
79467;SHT30;68933;49.726;9.226;2024-02-21T01:13:09;9.6;68
79467;SHT30;68933;49.726;9.226;2024-02-21T01:15:22;9.6;68
79467;SHT30;68933;49.726;9.226;2024-02-21T01:17:35;9.6;68
79467;SHT30;68933;49.726;9.226;2024-02-21T01:19:48;9.6;68
79467;SHT30;68933;49.726;9.226;2024-02-21T01:22:01;9.6;68
79467;SHT30;68933;49.726;9.226;2024-02-21T01:24:14;9.6;68
79467;SHT30;68933;49.726;9.226;2024-02-21T01:26:27;9.6;68
79467;SHT30;68933;49.726;9.226;2024-02-21T01:28:40;9.6;68
79467;SHT30;68933;49.726;9.226;2024-02-21T01:30:53;9.6;68
79467;SHT30;68933;49.726;9.226;2024-02-21T01:33:06;9.6;68
79467;SHT30;68933;49.726;9.226;2024-02-21T01:35:19;9.6;68
79467;SHT30;68933;49.726;9.226;2024-02-21T01:37:32;9.7;68
79467;SHT30;68933;49.726;9.226;2024-02-21T01:39:45;9.7;68
79467;SHT30;68933;49.726;9.226;2024-02-21T01:41:58;9.7;68
79467;SHT30;68933;49.726;9.226;2024-02-21T01:44:11;9.7;68
79467;SHT30;68933;49.726;9.226;2024-02-21T01:46:24;9.7;68
79467;SHT30;68933;49.726;9.226;2024-02-21T01:48:37;9.6;68
79467;SHT30;68933;49.726;9.226;2024-02-21T01:50:50;9.6;68
79467;SHT30;68933;49.726;9.226;2024-02-21T01:53:03;9.6;68
79467;SHT30;68933;49.726;9.226;2024-02-21T01:55:16;9.6;68
79467;SHT30;68933;49.726;9.226;2024-02-21T01:57:29;9.6;68
79467;SHT30;68933;49.726;9.226;2024-02-21T01:59:42;9.6;68
79467;SHT30;68933;49.726;9.226;2024-02-21T02:01:55;9.6;68
79467;SHT30;68933;49.726;9.226;2024-02-21T02:04:08;9.6;68
79467;SHT30;68933;49.726;9.226;2024-02-21T02:06:21;9.6;68
79467;SHT30;68933;49.726;9.226;2024-02-21T02:08:34;9.5;68
79467;SHT30;68933;49.726;9.226;2024-02-21T02:10:47;9.5;68
79467;SHT30;68933;49.726;9.226;2024-02-21T02:13:00;9.5;70
79467;SHT30;68933;49.726;9.226;2024-02-21T02:15:13;9.5;70
79467;SHT30;68933;49.726;9.226;2024-02-21T02:17:26;9.5;70
79467;SHT30;68933;49.726;9.226;2024-02-21T02:19:39;9.5;68
79467;SHT30;68933;49.726;9.226;2024-02-21T02:21:54;9.5;68
79467;SHT30;68933;49.726;9.226;2024-02-21T02:24:05;9.5;68
79467;SHT30;68933;49.726;9.226;2024-02-21T02:26:18;9.5;68
79467;SHT30;68933;49.726;9.226;2024-02-21T02:28:31;9.5;68
79467;SHT30;68933;49.726;9.226;2024-02-21T02:30:44;9.5;68
79467;SHT30;68933;49.726;9.226;2024-02-21T02:32:57;9.5;68
79467;SHT30;68933;49.726;9.226;2024-02-21T02:35:10;9.5;70
79467;SHT30;68933;49.726;9.226;2024-02-21T02:37:23;9.5;70
79467;SHT30;68933;49.726;9.226;2024-02-21T02:39:36;9.5;70
79467;SHT30;68933;49.726;9.226;2024-02-21T02:41:49;9.5;70
79467;SHT30;68933;49.726;9.226;2024-02-21T02:44:02;9.5;70
79467;SHT30;68933;49.726;9.226;2024-02-21T02:46:15;9.4;70
79467;SHT30;68933;49.726;9.226;2024-02-21T02:48:28;9.4;70
79467;SHT30;68933;49.726;9.226;2024-02-21T02:50:41;9.4;70
79467;SHT30;68933;49.726;9.226;2024-02-21T02:52:54;9.4;70
79467;SHT30;68933;49.726;9.226;2024-02-21T02:55:07;9.4;70
79467;SHT30;68933;49.726;9.226;2024-02-21T02:57:20;9.4;70
79467;SHT30;68933;49.726;9.226;2024-02-21T02:59:33;9.4;70
79467;SHT30;68933;49.726;9.226;2024-02-21T03:01:46;9.4;70
79467;SHT30;68933;49.726;9.226;2024-02-21T03:03:59;9.4;70
79467;SHT30;68933;49.726;9.226;2024-02-21T03:06:12;9.5;70
79467;SHT30;68933;49.726;9.226;2024-02-21T03:08:25;9.5;70
79467;SHT30;68933;49.726;9.226;2024-02-21T03:10:38;9.5;70
79467;SHT30;68933;49.726;9.226;2024-02-21T03:12:51;9.5;70
79467;SHT30;68933;49.726;9.226;2024-02-21T03:15:04;9.5;70
79467;SHT30;68933;49.726;9.226;2024-02-21T03:17:17;9.5;70
79467;SHT30;68933;49.726;9.226;2024-02-21T03:19:30;9.5;70
79467;SHT30;68933;49.726;9.226;2024-02-21T03:21:43;9.4;70
79467;SHT30;68933;49.726;9.226;2024-02-21T03:23:56;9.4;70
79467;SHT30;68933;49.726;9.226;2024-02-21T03:26:09;9.4;70
79467;SHT30;68933;49.726;9.226;2024-02-21T03:28:22;9.4;70
79467;SHT30;68933;49.726;9.226;2024-02-21T03:30:35;9.4;70
79467;SHT30;68933;49.726;9.226;2024-02-21T03:32:48;9.4;70
79467;SHT30;68933;49.726;9.226;2024-02-21T03:35:01;9.4;70
79467;SHT30;68933;49.726;9.226;2024-02-21T03:37:14;9.3;70
79467;SHT30;68933;49.726;9.226;2024-02-21T03:39:27;9.3;70
79467;SHT30;68933;49.726;9.226;2024-02-21T03:41:40;9.3;70
79467;SHT30;68933;49.726;9.226;2024-02-21T03:43:53;9.3;70
79467;SHT30;68933;49.726;9.226;2024-02-21T03:46:06;9.2;70
79467;SHT30;68933;49.726;9.226;2024-02-21T03:48:19;9.2;70
79467;SHT30;68933;49.726;9.226;2024-02-21T03:50:32;9.2;70
79467;SHT30;68933;49.726;9.226;2024-02-21T03:52:45;9.2;70
79467;SHT30;68933;49.726;9.226;2024-02-21T03:54:58;9.2;70
79467;SHT30;68933;49.726;9.226;2024-02-21T03:57:11;9.2;70
79467;SHT30;68933;49.726;9.226;2024-02-21T03:59:24;9.2;70
79467;SHT30;68933;49.726;9.226;2024-02-21T04:01:37;9.2;70
79467;SHT30;68933;49.726;9.226;2024-02-21T04:03:50;9.2;70
79467;SHT30;68933;49.726;9.226;2024-02-21T04:06:03;9.2;70
79467;SHT30;68933;49.726;9.226;2024-02-21T04:08:16;9.1;70
79467;SHT30;68933;49.726;9.226;2024-02-21T04:10:29;9.1;70
79467;SHT30;68933;49.726;9.226;2024-02-21T04:12:42;9;70
79467;SHT30;68933;49.726;9.226;2024-02-21T04:14:55;9;70
79467;SHT30;68933;49.726;9.226;2024-02-21T04:17:08;8.9;70
79467;SHT30;68933;49.726;9.226;2024-02-21T04:19:21;8.9;70
79467;SHT30;68933;49.726;9.226;2024-02-21T04:21:34;8.9;70
79467;SHT30;68933;49.726;9.226;2024-02-21T04:23:47;8.9;70
79467;SHT30;68933;49.726;9.226;2024-02-21T04:26:00;8.9;70
79467;SHT30;68933;49.726;9.226;2024-02-21T04:28:13;8.9;70
79467;SHT30;68933;49.726;9.226;2024-02-21T04:30:26;8.9;70
79467;SHT30;68933;49.726;9.226;2024-02-21T04:32:39;8.8;70
79467;SHT30;68933;49.726;9.226;2024-02-21T04:34:52;8.8;70
79467;SHT30;68933;49.726;9.226;2024-02-21T04:37:05;8.8;70
79467;SHT30;68933;49.726;9.226;2024-02-21T04:39:18;8.7;71
79467;SHT30;68933;49.726;9.226;2024-02-21T04:41:31;8.7;71
79467;SHT30;68933;49.726;9.226;2024-02-21T04:43:45;8.5;71
79467;SHT30;68933;49.726;9.226;2024-02-21T04:45:57;8.5;71
79467;SHT30;68933;49.726;9.226;2024-02-21T04:48:10;8.5;71
79467;SHT30;68933;49.726;9.226;2024-02-21T04:50:23;8.5;71
79467;SHT30;68933;49.726;9.226;2024-02-21T04:52:36;8.5;71
79467;SHT30;68933;49.726;9.226;2024-02-21T04:54:49;8.5;71
79467;SHT30;68933;49.726;9.226;2024-02-21T04:57:02;8.4;71
79467;SHT30;68933;49.726;9.226;2024-02-21T04:59:15;8.4;71
79467;SHT30;68933;49.726;9.226;2024-02-21T05:01:28;8.4;71
79467;SHT30;68933;49.726;9.226;2024-02-21T05:03:41;8.4;71
79467;SHT30;68933;49.726;9.226;2024-02-21T05:05:54;8.4;71
79467;SHT30;68933;49.726;9.226;2024-02-21T05:08:07;8.3;71
79467;SHT30;68933;49.726;9.226;2024-02-21T05:10:20;8.3;71
79467;SHT30;68933;49.726;9.226;2024-02-21T05:12:33;8.3;71
79467;SHT30;68933;49.726;9.226;2024-02-21T05:14:46;8.3;71
79467;SHT30;68933;49.726;9.226;2024-02-21T05:16:59;8.2;71
79467;SHT30;68933;49.726;9.226;2024-02-21T05:19:12;8.2;71
79467;SHT30;68933;49.726;9.226;2024-02-21T05:21:25;8.2;71
79467;SHT30;68933;49.726;9.226;2024-02-21T05:23:38;8.2;71
79467;SHT30;68933;49.726;9.226;2024-02-21T05:25:51;8.2;71
79467;SHT30;68933;49.726;9.226;2024-02-21T05:28:04;8.1;73
79467;SHT30;68933;49.726;9.226;2024-02-21T05:30:17;8.1;73
79467;SHT30;68933;49.726;9.226;2024-02-21T05:32:30;8;73
79467;SHT30;68933;49.726;9.226;2024-02-21T05:34:43;8;73
79467;SHT30;68933;49.726;9.226;2024-02-21T05:36:56;8;73
79467;SHT30;68933;49.726;9.226;2024-02-21T05:39:09;8;73
79467;SHT30;68933;49.726;9.226;2024-02-21T05:41:22;7.9;73
79467;SHT30;68933;49.726;9.226;2024-02-21T05:43:35;7.9;73
79467;SHT30;68933;49.726;9.226;2024-02-21T05:45:48;7.9;73
79467;SHT30;68933;49.726;9.226;2024-02-21T05:48:01;7.9;73
79467;SHT30;68933;49.726;9.226;2024-02-21T05:50:14;7.9;73
79467;SHT30;68933;49.726;9.226;2024-02-21T05:52:27;7.9;73
79467;SHT30;68933;49.726;9.226;2024-02-21T05:54:40;7.9;73
79467;SHT30;68933;49.726;9.226;2024-02-21T05:56:53;7.8;73
79467;SHT30;68933;49.726;9.226;2024-02-21T05:59:06;7.8;73
79467;SHT30;68933;49.726;9.226;2024-02-21T06:01:19;7.8;73
79467;SHT30;68933;49.726;9.226;2024-02-21T06:03:32;7.8;73
79467;SHT30;68933;49.726;9.226;2024-02-21T06:05:45;7.8;73
79467;SHT30;68933;49.726;9.226;2024-02-21T06:07:58;7.7;73
79467;SHT30;68933;49.726;9.226;2024-02-21T06:10:11;7.7;73
79467;SHT30;68933;49.726;9.226;2024-02-21T06:12:24;7.7;73
79467;SHT30;68933;49.726;9.226;2024-02-21T06:14:37;7.7;73
79467;SHT30;68933;49.726;9.226;2024-02-21T06:16:50;7.7;73
79467;SHT30;68933;49.726;9.226;2024-02-21T06:19:03;7.6;73
79467;SHT30;68933;49.726;9.226;2024-02-21T06:21:16;7.6;73
79467;SHT30;68933;49.726;9.226;2024-02-21T06:23:29;7.6;73
79467;SHT30;68933;49.726;9.226;2024-02-21T06:25:42;7.6;73
79467;SHT30;68933;49.726;9.226;2024-02-21T06:27:55;7.6;73
79467;SHT30;68933;49.726;9.226;2024-02-21T06:30:08;7.5;73
79467;SHT30;68933;49.726;9.226;2024-02-21T06:32:21;7.5;73
79467;SHT30;68933;49.726;9.226;2024-02-21T06:34:34;7.5;73
79467;SHT30;68933;49.726;9.226;2024-02-21T06:36:47;7.5;73
79467;SHT30;68933;49.726;9.226;2024-02-21T06:39:00;7.5;73
79467;SHT30;68933;49.726;9.226;2024-02-21T06:41:14;7.4;73
79467;SHT30;68933;49.726;9.226;2024-02-21T06:43:26;7.4;73
79467;SHT30;68933;49.726;9.226;2024-02-21T06:45:39;7.4;73
79467;SHT30;68933;49.726;9.226;2024-02-21T06:47:52;7.4;73
79467;SHT30;68933;49.726;9.226;2024-02-21T06:50:05;7.4;74
79467;SHT30;68933;49.726;9.226;2024-02-21T06:52:18;7.4;74
79467;SHT30;68933;49.726;9.226;2024-02-21T06:54:31;7.4;74
79467;SHT30;68933;49.726;9.226;2024-02-21T06:56:44;7.4;74
79467;SHT30;68933;49.726;9.226;2024-02-21T06:58:57;7.4;74
79467;SHT30;68933;49.726;9.226;2024-02-21T07:01:10;7.3;74
79467;SHT30;68933;49.726;9.226;2024-02-21T07:03:23;7.3;74
79467;SHT30;68933;49.726;9.226;2024-02-21T07:05:36;7.3;74
79467;SHT30;68933;49.726;9.226;2024-02-21T07:07:49;7.3;74
79467;SHT30;68933;49.726;9.226;2024-02-21T07:10:02;7.3;74
79467;SHT30;68933;49.726;9.226;2024-02-21T07:12:15;7.4;74
79467;SHT30;68933;49.726;9.226;2024-02-21T07:14:28;7.4;74
79467;SHT30;68933;49.726;9.226;2024-02-21T07:16:41;7.4;74
79467;SHT30;68933;49.726;9.226;2024-02-21T07:18:54;7.4;74
79467;SHT30;68933;49.726;9.226;2024-02-21T07:21:07;7.4;74
79467;SHT30;68933;49.726;9.226;2024-02-21T07:23:20;7.4;74
79467;SHT30;68933;49.726;9.226;2024-02-21T07:25:33;7.4;74
79467;SHT30;68933;49.726;9.226;2024-02-21T07:27:46;7.5;74
79467;SHT30;68933;49.726;9.226;2024-02-21T07:29:59;7.5;74
79467;SHT30;68933;49.726;9.226;2024-02-21T07:32:12;7.5;74
79467;SHT30;68933;49.726;9.226;2024-02-21T07:34:25;7.5;74
79467;SHT30;68933;49.726;9.226;2024-02-21T07:36:38;7.5;74
79467;SHT30;68933;49.726;9.226;2024-02-21T07:38:51;7.4;74
79467;SHT30;68933;49.726;9.226;2024-02-21T07:41:04;7.4;74
79467;SHT30;68933;49.726;9.226;2024-02-21T07:43:17;7.4;75
79467;SHT30;68933;49.726;9.226;2024-02-21T07:45:30;7.4;75
79467;SHT30;68933;49.726;9.226;2024-02-21T07:47:43;7.4;75
79467;SHT30;68933;49.726;9.226;2024-02-21T07:49:56;7.4;75
79467;SHT30;68933;49.726;9.226;2024-02-21T07:52:09;7.7;77
79467;SHT30;68933;49.726;9.226;2024-02-21T07:54:22;7.7;77
79467;SHT30;68933;49.726;9.226;2024-02-21T07:56:35;7.7;77
79467;SHT30;68933;49.726;9.226;2024-02-21T07:58:48;7.8;75
79467;SHT30;68933;49.726;9.226;2024-02-21T08:01:01;7.8;75
79467;SHT30;68933;49.726;9.226;2024-02-21T08:03:14;7.8;75
79467;SHT30;68933;49.726;9.226;2024-02-21T08:05:27;7.8;75
79467;SHT30;68933;49.726;9.226;2024-02-21T08:07:40;8;75
79467;SHT30;68933;49.726;9.226;2024-02-21T08:09:53;8;75
79467;SHT30;68933;49.726;9.226;2024-02-21T08:12:06;8.2;75
79467;SHT30;68933;49.726;9.226;2024-02-21T08:14:19;8.2;75
79467;SHT30;68933;49.726;9.226;2024-02-21T08:16:32;8.3;74
79467;SHT30;68933;49.726;9.226;2024-02-21T08:18:45;8.3;74
79467;SHT30;68933;49.726;9.226;2024-02-21T08:20:58;8.3;74
79467;SHT30;68933;49.726;9.226;2024-02-21T08:23:11;8.4;74
79467;SHT30;68933;49.726;9.226;2024-02-21T08:25:24;8.4;74
79467;SHT30;68933;49.726;9.226;2024-02-21T08:27:37;8.5;74
79467;SHT30;68933;49.726;9.226;2024-02-21T08:29:50;8.5;74
79467;SHT30;68933;49.726;9.226;2024-02-21T08:32:03;8.6;74
79467;SHT30;68933;49.726;9.226;2024-02-21T08:34:16;8.6;74
79467;SHT30;68933;49.726;9.226;2024-02-21T08:36:29;8.8;74
79467;SHT30;68933;49.726;9.226;2024-02-21T08:38:42;8.8;74
79467;SHT30;68933;49.726;9.226;2024-02-21T08:40:55;8.9;74
79467;SHT30;68933;49.726;9.226;2024-02-21T08:43:08;8.9;74
79467;SHT30;68933;49.726;9.226;2024-02-21T08:45:21;8.9;74
79467;SHT30;68933;49.726;9.226;2024-02-21T08:47:34;9.1;74
79467;SHT30;68933;49.726;9.226;2024-02-21T08:49:47;9.1;74
79467;SHT30;68933;49.726;9.226;2024-02-21T08:52:00;9.4;72
79467;SHT30;68933;49.726;9.226;2024-02-21T08:54:13;9.4;72
79467;SHT30;68933;49.726;9.226;2024-02-21T08:56:26;9.4;72
79467;SHT30;68933;49.726;9.226;2024-02-21T08:58:39;9.6;70
79467;SHT30;68933;49.726;9.226;2024-02-21T09:00:52;9.6;70
79467;SHT30;68933;49.726;9.226;2024-02-21T09:03:05;9.7;70
79467;SHT30;68933;49.726;9.226;2024-02-21T09:05:18;9.7;70
79467;SHT30;68933;49.726;9.226;2024-02-21T09:07:31;9.7;70
79467;SHT30;68933;49.726;9.226;2024-02-21T09:09:44;9.9;68
79467;SHT30;68933;49.726;9.226;2024-02-21T09:11:57;9.9;68
79467;SHT30;68933;49.726;9.226;2024-02-21T09:14:10;10;68
79467;SHT30;68933;49.726;9.226;2024-02-21T09:16:23;10;68
79467;SHT30;68933;49.726;9.226;2024-02-21T09:18:36;10;68
79467;SHT30;68933;49.726;9.226;2024-02-21T09:20:49;10.1;67
79467;SHT30;68933;49.726;9.226;2024-02-21T09:23:02;10.1;67
79467;SHT30;68933;49.726;9.226;2024-02-21T09:25:15;10.3;67
79467;SHT30;68933;49.726;9.226;2024-02-21T09:27:28;10.3;67
79467;SHT30;68933;49.726;9.226;2024-02-21T09:29:41;10.4;67
79467;SHT30;68933;49.726;9.226;2024-02-21T09:31:54;10.4;67
79467;SHT30;68933;49.726;9.226;2024-02-21T09:34:07;10.4;67
79467;SHT30;68933;49.726;9.226;2024-02-21T09:36:20;10.5;66
79467;SHT30;68933;49.726;9.226;2024-02-21T09:38:33;10.5;66
79467;SHT30;68933;49.726;9.226;2024-02-21T09:40:46;10.8;66
79467;SHT30;68933;49.726;9.226;2024-02-21T09:43:02;10.8;66
79467;SHT30;68933;49.726;9.226;2024-02-21T09:45:14;10.9;66
79467;SHT30;68933;49.726;9.226;2024-02-21T09:47:28;10.9;66
79467;SHT30;68933;49.726;9.226;2024-02-21T09:49:38;10.9;66
79467;SHT30;68933;49.726;9.226;2024-02-21T09:51:51;11.1;64
79467;SHT30;68933;49.726;9.226;2024-02-21T09:54:04;11.1;64
79467;SHT30;68933;49.726;9.226;2024-02-21T09:56:17;11.3;64
79467;SHT30;68933;49.726;9.226;2024-02-21T09:58:30;11.3;64
79467;SHT30;68933;49.726;9.226;2024-02-21T10:00:43;11.4;63
79467;SHT30;68933;49.726;9.226;2024-02-21T10:02:56;11.4;63
79467;SHT30;68933;49.726;9.226;2024-02-21T10:05:09;11.4;63
79467;SHT30;68933;49.726;9.226;2024-02-21T10:07:22;11.6;61
79467;SHT30;68933;49.726;9.226;2024-02-21T10:09:35;11.6;61
79467;SHT30;68933;49.726;9.226;2024-02-21T10:11:48;11.7;60
79467;SHT30;68933;49.726;9.226;2024-02-21T10:14:02;11.7;60
79467;SHT30;68933;49.726;9.226;2024-02-21T10:16:14;11.8;60
79467;SHT30;68933;49.726;9.226;2024-02-21T10:18:27;11.8;60
79467;SHT30;68933;49.726;9.226;2024-02-21T10:20:40;11.8;60
79467;SHT30;68933;49.726;9.226;2024-02-21T10:23:00;12;60
79467;SHT30;68933;49.726;9.226;2024-02-21T10:25:06;12;60
79467;SHT30;68933;49.726;9.226;2024-02-21T10:27:19;12.3;60
79467;SHT30;68933;49.726;9.226;2024-02-21T10:29:32;12.3;60
79467;SHT30;68933;49.726;9.226;2024-02-21T10:31:45;12.4;59
79467;SHT30;68933;49.726;9.226;2024-02-21T10:33:58;12.4;59
79467;SHT30;68933;49.726;9.226;2024-02-21T10:36:11;12.4;59
79467;SHT30;68933;49.726;9.226;2024-02-21T10:38:24;12.6;57
79467;SHT30;68933;49.726;9.226;2024-02-21T10:40:37;12.6;57
79467;SHT30;68933;49.726;9.226;2024-02-21T10:42:51;12.9;57
79467;SHT30;68933;49.726;9.226;2024-02-21T10:45:03;12.9;57
79467;SHT30;68933;49.726;9.226;2024-02-21T10:47:16;13.1;57
79467;SHT30;68933;49.726;9.226;2024-02-21T10:49:29;13.1;57
79467;SHT30;68933;49.726;9.226;2024-02-21T10:51:43;13.3;56
79467;SHT30;68933;49.726;9.226;2024-02-21T10:53:57;13.3;56
79467;SHT30;68933;49.726;9.226;2024-02-21T10:56:11;13.5;55
79467;SHT30;68933;49.726;9.226;2024-02-21T10:58:21;13.5;55
79467;SHT30;68933;49.726;9.226;2024-02-21T11:00:34;13.5;55
79467;SHT30;68933;49.726;9.226;2024-02-21T11:02:47;13.7;55
79467;SHT30;68933;49.726;9.226;2024-02-21T11:05:00;13.7;55
79467;SHT30;68933;49.726;9.226;2024-02-21T11:07:13;13.8;55
79467;SHT30;68933;49.726;9.226;2024-02-21T11:09:29;13.8;55
79467;SHT30;68933;49.726;9.226;2024-02-21T11:11:39;13.8;53
79467;SHT30;68933;49.726;9.226;2024-02-21T11:13:52;13.8;53
79467;SHT30;68933;49.726;9.226;2024-02-21T11:16:06;13.8;53
79467;SHT30;68933;49.726;9.226;2024-02-21T11:18:23;13.8;53
79467;SHT30;68933;49.726;9.226;2024-02-21T11:20:32;13.9;53
79467;SHT30;68933;49.726;9.226;2024-02-21T11:22:44;13.9;53
79467;SHT30;68933;49.726;9.226;2024-02-21T11:25:05;13.9;53
79467;SHT30;68933;49.726;9.226;2024-02-21T11:27:11;14;53
79467;SHT30;68933;49.726;9.226;2024-02-21T11:29:23;14;53
79467;SHT30;68933;49.726;9.226;2024-02-21T11:31:39;14.2;53
79467;SHT30;68933;49.726;9.226;2024-02-21T11:33:49;14.2;53
79467;SHT30;68933;49.726;9.226;2024-02-21T11:36:02;14.3;52
79467;SHT30;68933;49.726;9.226;2024-02-21T11:38:15;14.3;52
79467;SHT30;68933;49.726;9.226;2024-02-21T11:40:28;14.3;52
79467;SHT30;68933;49.726;9.226;2024-02-21T11:42:41;14.3;52
79467;SHT30;68933;49.726;9.226;2024-02-21T11:44:54;14.2;52
79467;SHT30;68933;49.726;9.226;2024-02-21T11:47:07;14.2;52
79467;SHT30;68933;49.726;9.226;2024-02-21T11:49:20;14.1;52
79467;SHT30;68933;49.726;9.226;2024-02-21T11:51:34;14.1;52
79467;SHT30;68933;49.726;9.226;2024-02-21T11:53:46;14.1;52
79467;SHT30;68933;49.726;9.226;2024-02-21T11:55:59;14;51
79467;SHT30;68933;49.726;9.226;2024-02-21T11:58:12;14;51
79467;SHT30;68933;49.726;9.226;2024-02-21T12:00:25;14;51
79467;SHT30;68933;49.726;9.226;2024-02-21T12:02:38;14;51
79467;SHT30;68933;49.726;9.226;2024-02-21T12:04:51;14;51
79467;SHT30;68933;49.726;9.226;2024-02-21T12:07:04;13.9;51
79467;SHT30;68933;49.726;9.226;2024-02-21T12:09:17;13.9;51
79467;SHT30;68933;49.726;9.226;2024-02-21T12:11:30;13.9;51
79467;SHT30;68933;49.726;9.226;2024-02-21T12:13:43;13.9;51
79467;SHT30;68933;49.726;9.226;2024-02-21T12:15:56;13.9;51
79467;SHT30;68933;49.726;9.226;2024-02-21T12:18:09;13.9;51
79467;SHT30;68933;49.726;9.226;2024-02-21T12:20:22;13.9;51
79467;SHT30;68933;49.726;9.226;2024-02-21T12:22:35;14;49
79467;SHT30;68933;49.726;9.226;2024-02-21T12:24:48;14;49
79467;SHT30;68933;49.726;9.226;2024-02-21T12:27:01;13.9;49
79467;SHT30;68933;49.726;9.226;2024-02-21T12:29:14;13.9;49
79467;SHT30;68933;49.726;9.226;2024-02-21T12:31:27;13.9;49
79467;SHT30;68933;49.726;9.226;2024-02-21T12:33:40;13.8;49
79467;SHT30;68933;49.726;9.226;2024-02-21T12:35:53;13.8;49
79467;SHT30;68933;49.726;9.226;2024-02-21T12:38:06;13.7;49
79467;SHT30;68933;49.726;9.226;2024-02-21T12:40:19;13.7;49
79467;SHT30;68933;49.726;9.226;2024-02-21T12:42:32;13.5;49
79467;SHT30;68933;49.726;9.226;2024-02-21T12:44:45;13.5;49
79467;SHT30;68933;49.726;9.226;2024-02-21T12:46:58;13.5;49
79467;SHT30;68933;49.726;9.226;2024-02-21T12:49:11;13.4;49
79467;SHT30;68933;49.726;9.226;2024-02-21T12:51:24;13.4;49
79467;SHT30;68933;49.726;9.226;2024-02-21T12:53:37;13.4;49
79467;SHT30;68933;49.726;9.226;2024-02-21T12:55:50;13.4;49
79467;SHT30;68933;49.726;9.226;2024-02-21T12:58:03;13.4;49
79467;SHT30;68933;49.726;9.226;2024-02-21T13:00:16;13.4;49
79467;SHT30;68933;49.726;9.226;2024-02-21T13:02:29;13.4;49
79467;SHT30;68933;49.726;9.226;2024-02-21T13:04:42;13.5;49
79467;SHT30;68933;49.726;9.226;2024-02-21T13:06:55;13.5;49
79467;SHT30;68933;49.726;9.226;2024-02-21T13:09:08;13.7;49
79467;SHT30;68933;49.726;9.226;2024-02-21T13:11:21;13.7;49
79467;SHT30;68933;49.726;9.226;2024-02-21T13:13:34;13.7;49
79467;SHT30;68933;49.726;9.226;2024-02-21T13:15:47;13.8;49
79467;SHT30;68933;49.726;9.226;2024-02-21T13:18:00;13.8;49
79467;SHT30;68933;49.726;9.226;2024-02-21T13:20:13;13.9;49
79467;SHT30;68933;49.726;9.226;2024-02-21T13:22:26;13.9;49
79467;SHT30;68933;49.726;9.226;2024-02-21T13:24:39;14;48
79467;SHT30;68933;49.726;9.226;2024-02-21T13:26:52;14;48
79467;SHT30;68933;49.726;9.226;2024-02-21T13:29:05;13.9;48
79467;SHT30;68933;49.726;9.226;2024-02-21T13:31:18;13.9;48
79467;SHT30;68933;49.726;9.226;2024-02-21T13:33:31;13.9;48
79467;SHT30;68933;49.726;9.226;2024-02-21T13:35:44;13.8;48
79467;SHT30;68933;49.726;9.226;2024-02-21T13:37:57;13.8;48
79467;SHT30;68933;49.726;9.226;2024-02-21T13:40:10;13.8;48
79467;SHT30;68933;49.726;9.226;2024-02-21T13:42:23;13.8;48
79467;SHT30;68933;49.726;9.226;2024-02-21T13:44:36;13.8;48
79467;SHT30;68933;49.726;9.226;2024-02-21T13:47:51;13.8;48
79467;SHT30;68933;49.726;9.226;2024-02-21T13:49:55;13.8;48
79467;SHT30;68933;49.726;9.226;2024-02-21T13:52:07;13.8;48
79467;SHT30;68933;49.726;9.226;2024-02-21T13:54:20;13.8;48
79467;SHT30;68933;49.726;9.226;2024-02-21T13:56:33;13.8;48
79467;SHT30;68933;49.726;9.226;2024-02-21T13:58:46;13.8;48
79467;SHT30;68933;49.726;9.226;2024-02-21T14:00:59;13.8;48
79467;SHT30;68933;49.726;9.226;2024-02-21T14:03:12;13.8;48
79467;SHT30;68933;49.726;9.226;2024-02-21T14:05:25;13.8;48
79467;SHT30;68933;49.726;9.226;2024-02-21T14:07:38;13.8;48
79467;SHT30;68933;49.726;9.226;2024-02-21T14:09:51;13.5;49
79467;SHT30;68933;49.726;9.226;2024-02-21T14:12:04;13.5;49
79467;SHT30;68933;49.726;9.226;2024-02-21T14:14:17;13.5;49
79467;SHT30;68933;49.726;9.226;2024-02-21T14:16:30;13.4;49
79467;SHT30;68933;49.726;9.226;2024-02-21T14:18:43;13.4;49
79467;SHT30;68933;49.726;9.226;2024-02-21T14:20:56;13.4;48
79467;SHT30;68933;49.726;9.226;2024-02-21T14:23:09;13.4;48
79467;SHT30;68933;49.726;9.226;2024-02-21T14:25:22;13.4;48
79467;SHT30;68933;49.726;9.226;2024-02-21T14:27:35;13.4;48
79467;SHT30;68933;49.726;9.226;2024-02-21T14:29:48;13.4;48
79467;SHT30;68933;49.726;9.226;2024-02-21T14:32:01;13.4;48
79467;SHT30;68933;49.726;9.226;2024-02-21T14:34:14;13.4;48
79467;SHT30;68933;49.726;9.226;2024-02-21T14:36:27;13.4;48
79467;SHT30;68933;49.726;9.226;2024-02-21T14:38:40;13.4;48
79467;SHT30;68933;49.726;9.226;2024-02-21T14:40:53;13.4;48
79467;SHT30;68933;49.726;9.226;2024-02-21T14:43:06;13.4;48
79467;SHT30;68933;49.726;9.226;2024-02-21T14:45:19;13.5;49
79467;SHT30;68933;49.726;9.226;2024-02-21T14:47:32;13.5;49
79467;SHT30;68933;49.726;9.226;2024-02-21T14:49:45;13.6;49
79467;SHT30;68933;49.726;9.226;2024-02-21T14:51:58;13.6;49
79467;SHT30;68933;49.726;9.226;2024-02-21T14:54:11;13.6;49
79467;SHT30;68933;49.726;9.226;2024-02-21T14:56:24;13.7;51
79467;SHT30;68933;49.726;9.226;2024-02-21T14:58:37;13.7;51
79467;SHT30;68933;49.726;9.226;2024-02-21T15:00:50;13.8;49
79467;SHT30;68933;49.726;9.226;2024-02-21T15:03:03;13.8;49
79467;SHT30;68933;49.726;9.226;2024-02-21T15:05:16;13.8;49
79467;SHT30;68933;49.726;9.226;2024-02-21T15:07:29;13.8;49
79467;SHT30;68933;49.726;9.226;2024-02-21T15:09:42;13.8;49
79467;SHT30;68933;49.726;9.226;2024-02-21T15:11:55;13.8;49
79467;SHT30;68933;49.726;9.226;2024-02-21T15:14:08;13.8;48